LTG11AY GCLP-SBFZ
Flight info
| Callsign | LTG11AY |
|---|---|
| Flight time | N/A |
| Altitude | 38000 |
| Route | LOMAS DCT URQUI DCT ORVEK N866 TENPA UN866 ARTIG UZ18 ROLID |
| Aircraft | B763/H-SDE3FGHIM3RWXY/LB1 |
Departure
| Time | 2026-04-28 01:51 |
|---|---|
| Airport | Gran Canaria Airport (GCLP) |
Arrival
| Time | N/A |
|---|---|
| Airport | Pinto Martins International Airport (SBFZ) |
| Time | Latitude | Longitude | Altitude | Speed | Heading |
|---|---|---|---|---|---|
| 2026-04-28 01:30 | 27.92867 | -15.39247 | 119 ft | 0 kts | 292° |
| 2026-04-28 01:39 | 27.92866 | -15.39245 | 119 ft | 1 kts | 292° |
| 2026-04-28 01:40 | 27.92861 | -15.39230 | 117 ft | 1 kts | 292° |
| 2026-04-28 01:40 | 27.92857 | -15.39219 | 117 ft | 2 kts | 285° |
| 2026-04-28 01:40 | 27.92855 | -15.39202 | 115 ft | 2 kts | 268° |
| 2026-04-28 01:40 | 27.92856 | -15.39186 | 114 ft | 2 kts | 255° |
| 2026-04-28 01:41 | 27.92862 | -15.39170 | 113 ft | 2 kts | 240° |
| 2026-04-28 01:41 | 27.92870 | -15.39156 | 112 ft | 2 kts | 226° |
| 2026-04-28 01:41 | 27.92881 | -15.39145 | 112 ft | 2 kts | 213° |
| 2026-04-28 01:41 | 27.92891 | -15.39139 | 111 ft | 0 kts | 201° |
| 2026-04-28 01:42 | 27.92895 | -15.39137 | 111 ft | 0 kts | 201° |
| 2026-04-28 01:45 | 27.92889 | -15.39140 | 111 ft | 4 kts | 201° |
| 2026-04-28 01:45 | 27.92835 | -15.39165 | 112 ft | 12 kts | 208° |
| 2026-04-28 01:45 | 27.92760 | -15.39223 | 117 ft | 10 kts | 215° |
| 2026-04-28 01:45 | 27.92706 | -15.39254 | 119 ft | 7 kts | 202° |
| 2026-04-28 01:46 | 27.92631 | -15.39288 | 122 ft | 16 kts | 202° |
| 2026-04-28 01:46 | 27.92509 | -15.39329 | 125 ft | 21 kts | 178° |
| 2026-04-28 01:46 | 27.92415 | -15.39234 | 117 ft | 16 kts | 134° |
| 2026-04-28 01:46 | 27.92316 | -15.39244 | 118 ft | 13 kts | 202° |
| 2026-04-28 01:47 | 27.92238 | -15.39275 | 118 ft | 10 kts | 200° |
| 2026-04-28 01:47 | 27.92186 | -15.39296 | 119 ft | 5 kts | 199° |
| 2026-04-28 01:47 | 27.92159 | -15.39306 | 120 ft | 4 kts | 196° |
| 2026-04-28 01:47 | 27.92097 | -15.39308 | 119 ft | 13 kts | 174° |
| 2026-04-28 01:48 | 27.91978 | -15.39295 | 116 ft | 20 kts | 174° |
| 2026-04-28 01:48 | 27.91938 | -15.39206 | 110 ft | 16 kts | 18° |
| 2026-04-28 01:48 | 27.91976 | -15.39194 | 110 ft | 0 kts | 21° |
| 2026-04-28 01:50 | 27.92049 | -15.39163 | 109 ft | 27 kts | 21° |
| 2026-04-28 01:50 | 27.92469 | -15.38980 | 97 ft | 102 kts | 21° |
| 2026-04-28 01:50 | 27.93359 | -15.38588 | 86 ft | 168 kts | 20° |
| 2026-04-28 01:51 | 27.94550 | -15.38039 | 573 ft | 194 kts | 22° |
| 2026-04-28 01:51 | 27.95793 | -15.37483 | 1541 ft | 202 kts | 19° |
| 2026-04-28 01:51 | 27.97208 | -15.36889 | 2092 ft | 234 kts | 20° |
| 2026-04-28 01:51 | 27.98658 | -15.36269 | 2538 ft | 213 kts | 20° |
| 2026-04-28 01:52 | 28.00034 | -15.35678 | 3062 ft | 212 kts | 20° |
| 2026-04-28 01:52 | 28.01429 | -15.35079 | 3575 ft | 214 kts | 20° |
| 2026-04-28 01:52 | 28.02675 | -15.34124 | 4093 ft | 231 kts | 52° |
| 2026-04-28 01:52 | 28.03311 | -15.32399 | 4752 ft | 254 kts | 82° |
| 2026-04-28 01:53 | 28.03058 | -15.30340 | 5388 ft | 278 kts | 111° |
| 2026-04-28 01:53 | 28.02094 | -15.28416 | 5963 ft | 286 kts | 118° |
| 2026-04-28 01:53 | 28.01149 | -15.26471 | 6462 ft | 284 kts | 114° |
| 2026-04-28 01:53 | 28.00255 | -15.24468 | 6975 ft | 285 kts | 113° |
| 2026-04-28 01:54 | 27.99383 | -15.22436 | 7495 ft | 289 kts | 113° |
| 2026-04-28 01:54 | 27.98529 | -15.20397 | 8002 ft | 292 kts | 112° |
| 2026-04-28 01:54 | 27.97659 | -15.18294 | 8519 ft | 296 kts | 112° |
| 2026-04-28 01:54 | 27.96780 | -15.16150 | 9273 ft | 304 kts | 113° |
| 2026-04-28 01:55 | 27.95904 | -15.14011 | 10256 ft | 306 kts | 113° |
| 2026-04-28 01:55 | 27.94993 | -15.11776 | 10865 ft | 322 kts | 114° |
| 2026-04-28 01:55 | 27.94039 | -15.09438 | 11388 ft | 341 kts | 114° |
| 2026-04-28 01:55 | 27.93027 | -15.06959 | 11971 ft | 358 kts | 114° |
| 2026-04-28 01:56 | 27.91947 | -15.04314 | 12479 ft | 378 kts | 114° |
| 2026-04-28 01:56 | 27.90650 | -15.01680 | 12969 ft | 396 kts | 127° |
| 2026-04-28 01:56 | 27.88712 | -14.99384 | 13493 ft | 411 kts | 143° |
| 2026-04-28 01:56 | 27.86282 | -14.97694 | 14408 ft | 413 kts | 155° |
| 2026-04-28 01:57 | 27.83597 | -14.96535 | 15237 ft | 417 kts | 166° |
| 2026-04-28 01:57 | 27.80715 | -14.95938 | 16027 ft | 421 kts | 178° |
| 2026-04-28 01:57 | 27.77803 | -14.95944 | 16825 ft | 422 kts | 188° |
| 2026-04-28 01:57 | 27.74945 | -14.96538 | 17594 ft | 422 kts | 199° |
| 2026-04-28 01:58 | 27.72180 | -14.97719 | 18319 ft | 423 kts | 209° |
| 2026-04-28 01:58 | 27.69678 | -14.99420 | 18974 ft | 424 kts | 219° |
| 2026-04-28 01:58 | 27.67474 | -15.01616 | 19637 ft | 424 kts | 230° |
| 2026-04-28 01:58 | 27.65675 | -15.04199 | 20327 ft | 421 kts | 240° |
| 2026-04-28 01:59 | 27.64302 | -15.07130 | 20907 ft | 422 kts | 250° |
| 2026-04-28 01:59 | 27.63421 | -15.10268 | 21348 ft | 425 kts | 260° |
| 2026-04-28 01:59 | 27.63067 | -15.13534 | 21989 ft | 423 kts | 269° |
| 2026-04-28 01:59 | 27.63063 | -15.16875 | 22496 ft | 425 kts | 272° |
| 2026-04-28 02:00 | 27.63207 | -15.20164 | 23004 ft | 426 kts | 276° |
| 2026-04-28 02:00 | 27.63514 | -15.23505 | 23501 ft | 427 kts | 278° |
| 2026-04-28 02:00 | 27.63968 | -15.26801 | 23967 ft | 429 kts | 280° |
| 2026-04-28 02:00 | 27.64282 | -15.30133 | 24409 ft | 431 kts | 273° |
| 2026-04-28 02:01 | 27.64332 | -15.33503 | 24800 ft | 433 kts | 271° |
| 2026-04-28 02:01 | 27.64314 | -15.36921 | 25230 ft | 434 kts | 271° |
| 2026-04-28 02:01 | 27.64343 | -15.40323 | 25607 ft | 435 kts | 273° |
| 2026-04-28 02:01 | 27.64475 | -15.43725 | 25942 ft | 437 kts | 275° |
| 2026-04-28 02:02 | 27.64754 | -15.47129 | 26243 ft | 439 kts | 278° |
| 2026-04-28 02:02 | 27.65283 | -15.50488 | 26556 ft | 439 kts | 286° |
| 2026-04-28 02:02 | 27.66311 | -15.53709 | 26834 ft | 440 kts | 294° |
| 2026-04-28 02:02 | 27.67576 | -15.56867 | 27111 ft | 441 kts | 292° |
| 2026-04-28 02:03 | 27.68728 | -15.60052 | 27343 ft | 442 kts | 289° |
| 2026-04-28 02:03 | 27.69529 | -15.63382 | 27579 ft | 443 kts | 281° |
| 2026-04-28 02:03 | 27.69808 | -15.66870 | 27771 ft | 446 kts | 271° |
| 2026-04-28 02:03 | 27.69549 | -15.70353 | 28010 ft | 449 kts | 262° |
| 2026-04-28 02:04 | 27.68770 | -15.73765 | 28163 ft | 455 kts | 253° |
| 2026-04-28 02:04 | 27.67466 | -15.77038 | 28395 ft | 459 kts | 244° |
| 2026-04-28 02:04 | 27.65702 | -15.80051 | 28631 ft | 463 kts | 238° |
| 2026-04-28 02:04 | 27.63822 | -15.82969 | 28887 ft | 460 kts | 239° |
| 2026-04-28 02:05 | 27.61981 | -15.85917 | 29130 ft | 460 kts | 239° |
| 2026-04-28 02:05 | 27.60162 | -15.88856 | 29393 ft | 457 kts | 240° |
| 2026-04-28 02:05 | 27.58348 | -15.91805 | 29550 ft | 457 kts | 240° |
| 2026-04-28 02:05 | 27.56565 | -15.94719 | 29800 ft | 456 kts | 240° |
| 2026-04-28 02:06 | 27.54762 | -15.97672 | 30014 ft | 455 kts | 240° |
| 2026-04-28 02:06 | 27.52979 | -16.00596 | 30155 ft | 455 kts | 240° |
| 2026-04-28 02:06 | 27.51194 | -16.03526 | 30358 ft | 453 kts | 240° |
| 2026-04-28 02:06 | 27.49431 | -16.06423 | 30612 ft | 451 kts | 240° |
| 2026-04-28 02:07 | 27.47654 | -16.09340 | 30759 ft | 451 kts | 240° |
| 2026-04-28 02:07 | 27.45873 | -16.12264 | 30844 ft | 452 kts | 240° |
| 2026-04-28 02:07 | 27.44115 | -16.15150 | 30978 ft | 451 kts | 240° |
| 2026-04-28 02:07 | 27.42344 | -16.18055 | 31114 ft | 451 kts | 240° |
| 2026-04-28 02:08 | 27.40562 | -16.20976 | 31260 ft | 450 kts | 240° |
| 2026-04-28 02:08 | 27.38788 | -16.23882 | 31372 ft | 450 kts | 240° |
| 2026-04-28 02:08 | 27.37033 | -16.26757 | 31499 ft | 449 kts | 240° |
| 2026-04-28 02:08 | 27.35257 | -16.29662 | 31622 ft | 449 kts | 240° |
| 2026-04-28 02:09 | 27.31739 | -16.35413 | 31836 ft | 448 kts | 240° |